createdAt,value
2018-09-17T00:00:35.456Z,83.46
2018-09-17T00:03:04.006Z,83.07
2018-09-17T00:05:32.408Z,83.02
2018-09-17T00:08:00.828Z,83.69
2018-09-17T00:10:29.242Z,83.55
2018-09-17T00:12:57.658Z,82.36
2018-09-17T00:15:26.024Z,82.75
2018-09-17T00:17:54.429Z,83.10
2018-09-17T00:20:22.876Z,82.10
2018-09-17T00:22:51.257Z,83.52
2018-09-17T00:25:19.691Z,83.65
2018-09-17T00:27:48.090Z,83.70
2018-09-17T00:30:16.508Z,83.10
2018-09-17T00:32:44.935Z,83.42
2018-09-17T00:35:13.385Z,83.83
2018-09-17T00:37:41.781Z,84.03
2018-09-17T00:40:10.210Z,82.93
2018-09-17T00:42:38.713Z,83.13
2018-09-17T00:45:07.149Z,83.60
2018-09-17T00:47:35.593Z,82.89
2018-09-17T00:50:04.077Z,82.66
2018-09-17T00:52:32.519Z,82.97
2018-09-17T00:55:00.919Z,83.77
2018-09-17T00:57:29.437Z,83.63
2018-09-17T00:59:57.907Z,83.23
2018-09-17T01:02:26.331Z,83.16
2018-09-17T01:04:55.329Z,84.79
2018-09-17T01:07:23.781Z,84.44
2018-09-17T01:09:52.196Z,83.98
2018-09-17T01:12:20.629Z,84.04
2018-09-17T01:14:49.039Z,83.51
2018-09-17T01:17:17.505Z,83.76
2018-09-17T01:19:45.939Z,83.73
2018-09-17T01:22:14.360Z,84.19
2018-09-17T01:24:42.730Z,84.56
2018-09-17T01:27:11.140Z,83.41
2018-09-17T01:29:39.620Z,83.06
2018-09-17T01:32:08.051Z,82.90
2018-09-17T01:34:36.448Z,83.77
2018-09-17T01:37:04.928Z,83.70
2018-09-17T01:39:33.279Z,83.51
2018-09-17T01:42:01.738Z,83.28
2018-09-17T01:44:30.177Z,83.69
2018-09-17T01:46:58.589Z,84.24
2018-09-17T01:49:27.055Z,84.23
2018-09-17T01:51:55.556Z,84.64
2018-09-17T01:54:23.966Z,84.89
2018-09-17T01:56:52.344Z,84.09
2018-09-17T01:59:20.783Z,84.14
2018-09-17T02:01:49.254Z,84.78
2018-09-17T02:04:17.656Z,84.30
2018-09-17T02:06:46.045Z,83.57
2018-09-17T02:09:15.041Z,83.83
2018-09-17T02:11:43.444Z,83.95
2018-09-17T02:14:12.397Z,83.84
2018-09-17T02:16:40.806Z,84.29
2018-09-17T02:19:09.260Z,83.73
2018-09-17T02:21:37.701Z,83.95
2018-09-17T02:24:06.248Z,83.98
2018-09-17T02:26:34.626Z,84.10
2018-09-17T02:29:03.035Z,84.08
2018-09-17T02:31:31.439Z,84.02
2018-09-17T02:33:59.803Z,83.53
2018-09-17T02:36:28.247Z,84.42
2018-09-17T02:38:56.642Z,85.31
2018-09-17T02:41:25.124Z,84.53
2018-09-17T02:43:53.597Z,84.49
2018-09-17T02:46:22.028Z,84.46
2018-09-17T02:48:50.435Z,84.13
2018-09-17T02:51:18.932Z,84.40
2018-09-17T02:53:47.340Z,84.25
2018-09-17T02:56:15.765Z,84.19
2018-09-17T02:58:44.168Z,84.38
2018-09-17T03:01:12.581Z,84.78
2018-09-17T03:03:41.044Z,83.79
2018-09-17T03:06:09.444Z,84.55
2018-09-17T03:08:37.849Z,83.73
2018-09-17T03:11:06.318Z,84.22
2018-09-17T03:13:34.812Z,84.24
2018-09-17T03:16:03.263Z,84.64
2018-09-17T03:18:42.999Z,85.16
2018-09-17T03:21:11.449Z,85.62
2018-09-17T03:23:39.925Z,85.56
2018-09-17T03:26:08.621Z,85.83
2018-09-17T03:28:36.996Z,84.56
2018-09-17T03:31:05.397Z,84.27
2018-09-17T03:33:33.820Z,84.45
2018-09-17T03:36:02.317Z,83.93
2018-09-17T03:38:39.224Z,84.00
2018-09-17T03:41:08.381Z,85.17
2018-09-17T03:43:37.879Z,85.11
2018-09-17T03:46:06.398Z,84.76
2018-09-17T03:48:35.780Z,85.01
2018-09-17T03:51:04.977Z,85.56
2018-09-17T03:53:33.883Z,85.26
2018-09-17T03:56:03.132Z,85.50
2018-09-17T03:58:31.641Z,84.56
2018-09-17T04:01:01.358Z,85.11
2018-09-17T04:03:29.779Z,85.10
2018-09-17T04:05:58.851Z,85.63
2018-09-17T04:08:27.336Z,85.65
2018-09-17T04:10:55.811Z,85.65
2018-09-17T04:13:24.189Z,85.28
2018-09-17T04:15:52.595Z,85.23
2018-09-17T04:18:21.161Z,84.78
2018-09-17T04:20:49.598Z,85.33
2018-09-17T04:23:50.758Z,85.81
2018-09-17T04:26:19.160Z,85.48
2018-09-17T04:28:47.792Z,85.67
2018-09-17T04:31:16.235Z,85.41
2018-09-17T04:33:44.904Z,85.81
2018-09-17T04:36:13.840Z,86.32
2018-09-17T04:38:42.308Z,86.32
2018-09-17T04:41:10.748Z,85.72
2018-09-17T04:43:39.146Z,84.24
2018-09-17T04:48:49.694Z,85.46
2018-09-17T04:51:18.096Z,85.65
2018-09-17T04:53:46.501Z,85.50
2018-09-17T04:56:14.945Z,84.83
2018-09-17T04:58:43.357Z,85.12
2018-09-17T05:01:11.821Z,85.76
2018-09-17T05:03:40.259Z,85.33
2018-09-17T05:06:08.675Z,84.64
2018-09-17T05:08:37.051Z,85.16
2018-09-17T05:11:06.151Z,85.11
2018-09-17T05:13:34.590Z,86.01
2018-09-17T05:16:03.082Z,86.00
2018-09-17T05:18:31.533Z,85.94
2018-09-17T05:20:59.993Z,86.09
2018-09-17T05:23:28.384Z,85.15
2018-09-17T05:25:56.800Z,86.45
2018-09-17T05:28:25.196Z,86.07
2018-09-17T05:30:53.596Z,86.37
2018-09-17T05:33:22.054Z,86.83
2018-09-17T05:35:50.479Z,86.35
2018-09-17T05:38:18.887Z,85.99
2018-09-17T05:40:47.325Z,86.09
2018-09-17T05:43:15.704Z,84.90
2018-09-17T05:45:44.107Z,85.60
2018-09-17T05:48:13.359Z,85.68
2018-09-17T05:50:41.763Z,85.58
2018-09-17T05:53:10.167Z,86.44
2018-09-17T05:55:38.529Z,85.94
2018-09-17T05:58:06.932Z,85.36
2018-09-17T06:00:35.384Z,85.65
2018-09-17T06:03:04.426Z,86.51
2018-09-17T06:05:32.940Z,86.65
2018-09-17T06:08:01.364Z,86.50
2018-09-17T06:10:29.813Z,86.63
2018-09-17T06:12:58.257Z,87.11
2018-09-17T06:15:26.741Z,87.23
2018-09-17T06:17:55.161Z,87.09
2018-09-17T06:20:23.566Z,86.58
2018-09-17T06:22:51.970Z,86.98
2018-09-17T06:25:20.380Z,86.69
2018-09-17T06:27:48.801Z,86.74
2018-09-17T06:30:17.200Z,87.10
2018-09-17T06:32:45.620Z,86.85
2018-09-17T06:35:14.035Z,87.21
2018-09-17T06:37:42.480Z,87.99
2018-09-17T06:40:10.859Z,87.82
2018-09-17T06:42:39.311Z,87.67
2018-09-17T06:45:07.769Z,87.24
2018-09-17T06:47:36.197Z,87.13
2018-09-17T06:50:05.076Z,87.34
2018-09-17T06:52:33.479Z,87.26
2018-09-17T06:55:01.880Z,87.86
2018-09-17T06:57:30.285Z,87.72
2018-09-17T06:59:58.749Z,87.76
2018-09-17T07:02:27.191Z,87.51
2018-09-17T07:04:55.604Z,87.44
2018-09-17T07:07:23.987Z,86.81
2018-09-17T07:09:52.490Z,86.60
2018-09-17T07:12:20.872Z,86.35
2018-09-17T07:14:49.301Z,86.42
2018-09-17T07:17:17.694Z,86.16
2018-09-17T07:19:46.885Z,85.70
2018-09-17T07:22:15.293Z,86.09
2018-09-17T07:24:43.684Z,85.14
2018-09-17T07:27:12.091Z,85.88
2018-09-17T07:29:40.525Z,85.37
2018-09-17T07:32:08.976Z,83.92
2018-09-17T07:34:37.392Z,83.85
2018-09-17T07:37:05.962Z,84.28
2018-09-17T07:39:34.463Z,83.79
2018-09-17T07:42:03.018Z,83.60
2018-09-17T07:44:31.495Z,82.75
2018-09-17T07:46:59.920Z,82.01
2018-09-17T07:49:28.339Z,82.53
2018-09-17T07:51:56.772Z,82.13
2018-09-17T07:54:25.215Z,82.71
2018-09-17T07:56:53.974Z,82.39
2018-09-17T07:59:22.391Z,81.15
2018-09-17T08:01:50.889Z,81.62
2018-09-17T08:04:19.336Z,81.66
2018-09-17T08:06:47.756Z,81.66
2018-09-17T08:09:16.172Z,82.00
2018-09-17T08:11:44.841Z,82.24
2018-09-17T08:14:14.608Z,81.88
2018-09-17T08:16:43.081Z,81.49
2018-09-17T08:19:11.544Z,80.84
2018-09-17T08:21:40.032Z,81.24
2018-09-17T08:24:08.435Z,81.13
2018-09-17T08:26:36.879Z,81.01
2018-09-17T08:29:05.391Z,80.84
2018-09-17T08:31:33.828Z,80.84
2018-09-17T08:34:02.196Z,80.05
2018-09-17T08:36:30.630Z,80.61
2018-09-17T08:38:59.201Z,79.21
2018-09-17T08:41:27.654Z,79.41
2018-09-17T08:43:56.078Z,79.88
2018-09-17T08:46:24.473Z,79.76
2018-09-17T08:48:53.798Z,80.70
2018-09-17T08:51:22.236Z,79.91
2018-09-17T08:53:50.691Z,81.13
2018-09-17T08:56:22.236Z,80.60
2018-09-17T08:58:56.084Z,79.96
2018-09-17T09:01:29.611Z,80.34
2018-09-17T09:04:03.456Z,80.59
2018-09-17T09:06:36.944Z,79.51
2018-09-17T09:09:08.649Z,80.25
2018-09-17T09:12:45.669Z,80.17
2018-09-17T09:15:17.152Z,78.95
2018-09-17T09:17:45.579Z,79.95
2018-09-17T09:20:14.156Z,79.40
2018-09-17T09:22:42.608Z,78.82
2018-09-17T09:25:11.017Z,79.09
2018-09-17T09:27:39.460Z,79.31
2018-09-17T09:30:07.962Z,78.98
2018-09-17T09:32:36.387Z,78.67
2018-09-17T09:35:04.775Z,78.67
2018-09-17T09:37:33.157Z,79.32
2018-09-17T09:40:01.569Z,78.33
2018-09-17T09:42:29.984Z,78.02
2018-09-17T09:44:58.401Z,77.64
2018-09-17T09:47:26.891Z,77.41
2018-09-17T09:49:55.304Z,76.57
2018-09-17T09:52:23.729Z,76.56
2018-09-17T09:54:52.136Z,77.00
2018-09-17T09:57:20.586Z,76.98
2018-09-17T09:59:49.024Z,76.63
2018-09-17T10:02:22.644Z,76.14
2018-09-17T10:04:51.063Z,75.45
2018-09-17T10:07:19.828Z,75.00
2018-09-17T10:09:53.597Z,74.76
2018-09-17T10:12:27.427Z,75.32
2018-09-17T10:15:01.163Z,74.92
2018-09-17T10:17:34.980Z,74.43
2018-09-17T10:20:03.410Z,75.00
2018-09-17T10:22:31.776Z,71.84
2018-09-17T10:25:00.188Z,70.77
2018-09-17T10:27:28.873Z,71.29
2018-09-17T10:29:57.318Z,71.22
2018-09-17T10:32:25.676Z,71.07
2018-09-17T10:34:55.084Z,71.66
2018-09-17T10:37:23.479Z,71.76
2018-09-17T10:39:51.862Z,71.28
2018-09-17T10:42:20.829Z,72.14
2018-09-17T10:44:49.212Z,71.59
2018-09-17T10:47:17.610Z,70.93
2018-09-17T10:49:46.009Z,71.13
2018-09-17T10:52:14.401Z,71.33
2018-09-17T10:54:42.796Z,71.21
2018-09-17T10:57:11.194Z,70.16
2018-09-17T10:59:39.644Z,70.00
2018-09-17T11:02:08.037Z,70.38
2018-09-17T11:04:36.446Z,69.69
2018-09-17T11:07:04.873Z,69.26
2018-09-17T11:09:33.293Z,68.37
2018-09-17T11:12:01.673Z,67.05
2018-09-17T11:14:30.066Z,65.94
2018-09-17T11:16:58.475Z,65.60
2018-09-17T11:19:26.984Z,66.51
2018-09-17T11:21:55.397Z,65.34
2018-09-17T11:24:24.043Z,65.07
2018-09-17T11:26:52.445Z,64.42
2018-09-17T11:29:20.896Z,64.01
2018-09-17T11:31:49.312Z,64.70
2018-09-17T11:34:17.739Z,63.79
2018-09-17T11:36:46.167Z,62.10
2018-09-17T11:39:14.633Z,63.01
2018-09-17T11:41:43.066Z,63.16
2018-09-17T11:44:11.470Z,62.11
2018-09-17T11:46:39.896Z,61.35
2018-09-17T11:49:08.515Z,60.99
2018-09-17T11:51:37.020Z,60.75
2018-09-17T11:54:06.247Z,61.41
2018-09-17T11:56:34.597Z,62.09
2018-09-17T11:59:03.067Z,61.43
2018-09-17T12:01:36.621Z,60.69
2018-09-17T12:04:10.174Z,60.21
2018-09-17T12:06:43.851Z,61.69
2018-09-17T12:09:12.332Z,60.04
2018-09-17T12:11:41.208Z,60.11
2018-09-17T12:14:09.866Z,58.54
2018-09-17T12:16:38.331Z,57.48
2018-09-17T12:19:06.792Z,55.64
2018-09-17T12:21:35.499Z,53.64
2018-09-17T12:24:03.994Z,52.53
2018-09-17T12:26:32.366Z,51.84
2018-09-17T12:29:00.909Z,53.80
2018-09-17T12:31:29.307Z,53.06
2018-09-17T12:33:57.776Z,56.11
2018-09-17T12:36:26.096Z,55.03
2018-09-17T12:38:54.498Z,48.48
2018-09-17T12:41:22.952Z,55.21
2018-09-17T12:43:51.400Z,51.56
2018-09-17T12:46:19.787Z,52.93
2018-09-17T12:48:48.211Z,53.21
2018-09-17T12:51:16.629Z,50.11
2018-09-17T12:53:45.022Z,45.95
2018-09-17T12:56:13.448Z,50.36
2018-09-17T12:58:41.857Z,50.74
2018-09-17T13:01:10.400Z,52.13
2018-09-17T13:03:38.871Z,52.02
2018-09-17T13:06:07.298Z,51.94
2018-09-17T13:08:36.013Z,49.68
2018-09-17T13:11:04.455Z,45.12
2018-09-17T13:13:32.892Z,44.41
2018-09-17T13:16:01.360Z,47.47
2018-09-17T13:18:29.782Z,50.74
2018-09-17T13:20:59.442Z,51.30
2018-09-17T13:23:27.907Z,49.90
2018-09-17T13:25:56.320Z,47.40
2018-09-17T13:28:24.719Z,46.69
2018-09-17T13:30:53.141Z,49.63
2018-09-17T13:33:21.584Z,46.79
2018-09-17T13:35:50.127Z,47.92
2018-09-17T13:38:18.546Z,47.91
2018-09-17T13:40:47.001Z,47.79
2018-09-17T13:43:15.474Z,47.49
2018-09-17T13:45:43.990Z,45.96
2018-09-17T13:48:12.477Z,46.89
2018-09-17T13:50:41.025Z,47.19
2018-09-17T13:53:09.483Z,48.54
2018-09-17T13:55:38.034Z,47.27
2018-09-17T13:58:06.578Z,46.02
2018-09-17T14:00:35.252Z,45.74
2018-09-17T14:03:03.744Z,44.68
2018-09-17T14:05:32.184Z,41.89
2018-09-17T14:08:00.604Z,45.85
2018-09-17T14:10:29.071Z,47.92
2018-09-17T14:12:57.517Z,49.78
2018-09-17T14:15:25.977Z,50.08
2018-09-17T14:17:54.387Z,51.44
2018-09-17T14:22:50.164Z,50.06
2018-09-17T14:25:18.555Z,49.93
2018-09-17T14:27:47.154Z,50.74
2018-09-17T14:30:15.617Z,49.17
2018-09-17T14:32:49.443Z,47.46
2018-09-17T14:35:17.963Z,48.52
2018-09-17T14:37:46.339Z,46.00
2018-09-17T14:40:14.777Z,47.05
2018-09-17T14:42:43.206Z,47.06
2018-09-17T14:45:11.596Z,46.25
2018-09-17T14:47:40.605Z,45.85
2018-09-17T14:50:09.620Z,47.05
2018-09-17T14:52:38.047Z,46.80
2018-09-17T14:55:06.557Z,47.92
2018-09-17T14:57:35.016Z,48.08
2018-09-17T15:00:03.564Z,46.23
2018-09-17T15:02:32.097Z,49.28
2018-09-17T15:05:00.515Z,50.75
2018-09-17T15:07:28.939Z,50.86
2018-09-17T15:09:57.395Z,50.14
2018-09-17T15:12:25.861Z,49.78
2018-09-17T15:14:54.337Z,51.48
2018-09-17T15:17:22.752Z,52.52
2018-09-17T15:19:51.201Z,54.20
2018-09-17T15:22:19.708Z,54.56
2018-09-17T15:24:52.947Z,52.78
2018-09-17T15:27:21.364Z,51.65
2018-09-17T15:29:49.824Z,52.35
2018-09-17T15:32:18.346Z,51.17
2018-09-17T15:34:46.665Z,51.55
2018-09-17T15:37:15.113Z,50.03
2018-09-17T15:39:43.594Z,49.62
2018-09-17T15:42:11.924Z,49.65
2018-09-17T15:44:40.378Z,49.82
2018-09-17T15:47:08.925Z,51.54
2018-09-17T15:49:37.411Z,50.49
2018-09-17T15:52:05.871Z,51.55
2018-09-17T15:54:34.281Z,51.45
2018-09-17T15:57:02.734Z,52.95
2018-09-17T15:59:31.123Z,54.04
2018-09-17T16:01:59.589Z,52.23
2018-09-17T16:04:27.993Z,53.57
2018-09-17T16:06:56.422Z,57.83
2018-09-17T16:09:24.839Z,56.14
2018-09-17T16:11:54.245Z,57.67
2018-09-17T16:14:23.092Z,58.01
2018-09-17T16:16:51.625Z,59.13
2018-09-17T16:19:20.046Z,60.11
2018-09-17T16:21:49.580Z,60.87
2018-09-17T16:24:18.801Z,64.49
2018-09-17T16:26:47.213Z,61.89
2018-09-17T16:29:15.684Z,63.46
2018-09-17T16:31:44.411Z,63.97
2018-09-17T16:34:12.828Z,64.49
2018-09-17T16:36:41.210Z,66.00
2018-09-17T16:41:48.663Z,69.71
2018-09-17T16:44:17.624Z,70.45
2018-09-17T16:46:46.090Z,70.32
2018-09-17T16:49:14.904Z,71.13
2018-09-17T16:51:43.428Z,69.51
2018-09-17T16:54:11.911Z,67.70
2018-09-17T16:56:40.285Z,67.51
2018-09-17T16:59:08.928Z,69.88
2018-09-17T17:01:37.419Z,70.27
2018-09-17T17:04:05.886Z,71.83
2018-09-17T17:06:34.317Z,72.38
2018-09-17T17:09:03.330Z,72.51
2018-09-17T17:11:31.769Z,73.27
2018-09-17T17:14:01.656Z,73.66
2018-09-17T17:16:30.113Z,74.50
2018-09-17T17:18:58.580Z,74.25
2018-09-17T17:21:27.464Z,74.92
2018-09-17T17:23:55.942Z,73.92
2018-09-17T17:26:24.497Z,73.73
2018-09-17T17:28:52.980Z,74.05
2018-09-17T17:31:22.138Z,75.67
2018-09-17T17:33:51.676Z,75.29
2018-09-17T17:36:20.096Z,74.80
2018-09-17T17:38:49.580Z,74.75
2018-09-17T17:41:18.020Z,75.74
2018-09-17T17:43:47.285Z,76.52
2018-09-17T17:46:17.331Z,76.74
2018-09-17T17:48:45.701Z,77.00
2018-09-17T17:51:14.599Z,76.43
2018-09-17T17:53:42.975Z,77.25
2018-09-17T17:56:11.393Z,77.35
2018-09-17T17:58:40.520Z,77.11
2018-09-17T18:01:10.008Z,78.26
2018-09-17T18:03:38.343Z,77.11
2018-09-17T18:06:06.981Z,77.01
2018-09-17T18:08:35.446Z,77.25
2018-09-17T18:11:03.909Z,76.93
2018-09-17T18:13:32.464Z,77.92
2018-09-17T18:16:03.259Z,77.98
2018-09-17T18:18:32.668Z,78.12
2018-09-17T18:21:01.712Z,77.91
2018-09-17T18:23:30.107Z,78.73
2018-09-17T18:25:58.585Z,78.49
2018-09-17T18:28:27.044Z,77.97
2018-09-17T18:30:55.487Z,78.29
2018-09-17T18:33:23.969Z,78.48
2018-09-17T18:35:52.446Z,78.19
2018-09-17T18:38:20.955Z,79.04
2018-09-17T18:40:49.429Z,78.34
2018-09-17T18:43:17.882Z,78.89
2018-09-17T18:45:46.349Z,78.82
2018-09-17T18:48:14.818Z,78.19
2018-09-17T18:50:44.080Z,78.61
2018-09-17T18:53:12.495Z,78.44
2018-09-17T18:55:40.920Z,79.03
2018-09-17T18:58:09.386Z,78.59
2018-09-17T19:00:37.847Z,78.58
2018-09-17T19:03:06.415Z,77.81
2018-09-17T19:05:37.765Z,78.63
2018-09-17T19:08:06.241Z,78.28
2018-09-17T19:10:34.698Z,78.07
2018-09-17T19:13:03.151Z,78.68
2018-09-17T19:15:36.848Z,78.39
2018-09-17T19:18:10.566Z,78.62
2018-09-17T19:20:39.213Z,78.87
2018-09-17T19:23:12.676Z,78.32
2018-09-17T19:25:41.146Z,78.10
2018-09-17T19:28:14.787Z,78.36
2018-09-17T19:30:43.241Z,78.07
2018-09-17T19:33:12.422Z,78.95
2018-09-17T19:35:40.871Z,78.21
2018-09-17T19:38:14.496Z,78.92
2018-09-17T19:40:42.918Z,79.00
2018-09-17T19:43:11.370Z,78.65
2018-09-17T19:45:45.091Z,77.88
2018-09-17T19:48:13.601Z,78.40
2018-09-17T19:50:47.418Z,79.31
2018-09-17T19:53:15.885Z,79.03
2018-09-17T19:55:44.329Z,78.67
2018-09-17T19:58:18.204Z,77.99
2018-09-17T20:00:46.721Z,78.36
2018-09-17T20:03:15.101Z,78.61
2018-09-17T20:05:50.031Z,78.65
2018-09-17T20:08:18.534Z,78.68
2018-09-17T20:10:46.964Z,78.86
2018-09-17T20:13:15.403Z,78.65
2018-09-17T20:15:44.504Z,78.75
2018-09-17T20:18:12.917Z,78.54
2018-09-17T20:20:41.383Z,78.79
2018-09-17T20:23:09.875Z,79.10
2018-09-17T20:25:38.274Z,79.25
2018-09-17T20:28:06.692Z,79.68
2018-09-17T20:30:35.802Z,79.21
2018-09-17T20:33:04.369Z,79.43
2018-09-17T20:35:32.807Z,79.04
2018-09-17T20:38:01.262Z,79.18
2018-09-17T20:40:29.663Z,79.69
2018-09-17T20:42:58.126Z,79.43
2018-09-17T20:45:28.918Z,78.79
2018-09-17T20:47:57.334Z,78.53
2018-09-17T20:50:25.755Z,78.60
2018-09-17T20:52:54.237Z,78.78
2018-09-17T20:55:23.002Z,78.47
2018-09-17T20:57:51.313Z,78.94
2018-09-17T21:00:19.707Z,77.89
2018-09-17T21:02:48.097Z,78.56
2018-09-17T21:05:16.541Z,78.21
2018-09-17T21:07:44.927Z,78.99
2018-09-17T21:10:13.368Z,79.31
2018-09-17T21:12:41.910Z,79.10
2018-09-17T21:15:10.264Z,78.99
2018-09-17T21:17:38.678Z,79.10
2018-09-17T21:20:07.121Z,78.57
2018-09-17T21:22:35.525Z,78.86
2018-09-17T21:25:03.958Z,79.29
2018-09-17T21:27:32.322Z,79.22
2018-09-17T21:30:00.719Z,79.82
2018-09-17T21:32:29.166Z,79.45
2018-09-17T21:34:57.634Z,79.86
2018-09-17T21:37:26.032Z,79.52
2018-09-17T21:39:54.454Z,79.51
2018-09-17T21:42:22.902Z,79.15
2018-09-17T21:44:51.308Z,78.86
2018-09-17T21:47:19.733Z,78.67
2018-09-17T21:49:48.136Z,79.44
2018-09-17T21:52:16.643Z,79.01
2018-09-17T21:54:44.949Z,79.01
2018-09-17T21:57:13.399Z,78.71
2018-09-17T21:59:41.795Z,79.30
2018-09-17T22:02:10.252Z,79.07
2018-09-17T22:04:38.623Z,78.79
2018-09-17T22:07:07.056Z,79.00
2018-09-17T22:09:35.498Z,79.25
2018-09-17T22:12:03.932Z,78.91
2018-09-17T22:14:32.368Z,78.39
2018-09-17T22:17:00.775Z,78.16
2018-09-17T22:19:29.265Z,78.33
2018-09-17T22:21:57.649Z,76.61
2018-09-17T22:24:26.087Z,77.96
2018-09-17T22:26:54.468Z,78.59
2018-09-17T22:29:22.900Z,77.30
2018-09-17T22:31:51.268Z,77.62
2018-09-17T22:34:19.679Z,77.98
2018-09-17T22:36:48.125Z,77.75
2018-09-17T22:39:16.544Z,76.57
2018-09-17T22:41:44.957Z,77.32
2018-09-17T22:44:13.345Z,75.88
2018-09-17T22:46:41.794Z,76.19
2018-09-17T22:49:10.242Z,77.16
2018-09-17T22:51:38.648Z,76.67
2018-09-17T22:54:07.092Z,77.63
2018-09-17T22:56:35.495Z,77.69
2018-09-17T22:59:03.952Z,78.07
2018-09-17T23:01:32.409Z,78.51
2018-09-17T23:04:00.844Z,78.42
2018-09-17T23:06:29.270Z,77.63
2018-09-17T23:08:57.657Z,77.17
2018-09-17T23:11:26.040Z,78.04
2018-09-17T23:13:54.439Z,77.76
2018-09-17T23:16:22.832Z,77.75
2018-09-17T23:18:51.259Z,78.13
2018-09-17T23:21:19.632Z,78.00
2018-09-17T23:23:48.065Z,77.19
2018-09-17T23:26:16.481Z,77.61
2018-09-17T23:28:44.913Z,78.60
2018-09-17T23:31:13.328Z,78.31
2018-09-17T23:33:41.769Z,78.23
2018-09-17T23:36:10.671Z,78.49
2018-09-17T23:38:39.068Z,78.13
2018-09-17T23:41:07.461Z,78.85
2018-09-17T23:43:35.912Z,78.91
2018-09-17T23:46:04.320Z,78.81
2018-09-17T23:48:32.759Z,78.95
2018-09-17T23:51:02.126Z,78.95
2018-09-17T23:53:30.525Z,78.40
2018-09-17T23:55:58.920Z,78.94
2018-09-17T23:58:27.311Z,78.86
